createdAt,value
2018-11-21T00:01:05.099Z,81.30
2018-11-21T00:03:33.420Z,81.30
2018-11-21T00:06:01.802Z,81.70
2018-11-21T00:08:30.159Z,81.90
2018-11-21T00:10:58.893Z,82.00
2018-11-21T00:13:27.281Z,81.80
2018-11-21T00:15:56.009Z,81.40
2018-11-21T00:18:24.387Z,81.60
2018-11-21T00:20:53.141Z,81.70
2018-11-21T00:23:21.786Z,81.30
2018-11-21T00:25:50.458Z,81.80
2018-11-21T00:28:18.826Z,81.60
2018-11-21T00:30:47.190Z,81.60
2018-11-21T00:33:15.581Z,81.60
2018-11-21T00:35:43.941Z,81.30
2018-11-21T00:38:12.361Z,81.60
2018-11-21T00:40:40.718Z,81.70
2018-11-21T00:43:09.152Z,81.60
2018-11-21T00:45:37.502Z,82.10
2018-11-21T00:48:05.847Z,82.20
2018-11-21T00:50:34.207Z,82.00
2018-11-21T00:53:02.564Z,82.10
2018-11-21T00:55:31.322Z,82.30
2018-11-21T00:57:59.703Z,82.80
2018-11-21T01:00:28.073Z,82.60
2018-11-21T01:02:56.439Z,83.00
2018-11-21T01:05:24.874Z,83.10
2018-11-21T01:07:53.266Z,83.20
2018-11-21T01:10:21.591Z,83.60
2018-11-21T01:12:50.275Z,83.50
2018-11-21T01:15:18.610Z,83.70
2018-11-21T01:17:46.981Z,83.30
2018-11-21T01:20:15.330Z,84.10
2018-11-21T01:22:43.791Z,83.20
2018-11-21T01:25:12.164Z,83.10
2018-11-21T01:27:40.518Z,82.90
2018-11-21T01:30:09.430Z,83.20
2018-11-21T01:32:38.105Z,83.30
2018-11-21T01:35:07.006Z,83.50
2018-11-21T01:37:35.454Z,83.00
2018-11-21T01:40:04.059Z,83.70
2018-11-21T01:42:32.440Z,84.10
2018-11-21T01:45:01.187Z,84.40
2018-11-21T01:47:29.871Z,83.90
2018-11-21T01:49:58.592Z,83.40
2018-11-21T01:52:27.275Z,83.40
2018-11-21T01:54:56.407Z,83.30
2018-11-21T01:57:24.768Z,83.90
2018-11-21T01:59:53.495Z,83.90
2018-11-21T02:02:21.892Z,83.70
2018-11-21T02:04:50.250Z,83.90
2018-11-21T02:07:18.629Z,84.10
2018-11-21T02:09:46.970Z,84.20
2018-11-21T02:12:15.352Z,84.10
2018-11-21T02:14:43.826Z,84.60
2018-11-21T02:17:12.180Z,84.90
2018-11-21T02:19:40.559Z,85.00
2018-11-21T02:22:09.143Z,85.30
2018-11-21T02:24:37.506Z,85.70
2018-11-21T02:27:06.213Z,85.60
2018-11-21T02:29:34.568Z,85.90
2018-11-21T02:32:03.024Z,86.10
2018-11-21T02:34:31.384Z,86.40
2018-11-21T02:36:59.762Z,86.50
2018-11-21T02:39:28.110Z,86.60
2018-11-21T02:41:56.481Z,86.70
2018-11-21T02:44:24.867Z,88.10
2018-11-21T02:46:53.227Z,86.40
2018-11-21T02:49:21.602Z,87.40
2018-11-21T02:51:50.378Z,87.40
2018-11-21T02:54:18.811Z,87.60
2018-11-21T02:57:19.046Z,87.80
2018-11-21T02:59:47.958Z,88.00
2018-11-21T03:02:16.328Z,87.80
2018-11-21T03:04:44.684Z,88.20
2018-11-21T03:07:13.131Z,88.60
2018-11-21T03:09:41.791Z,88.60
2018-11-21T03:12:10.420Z,88.60
2018-11-21T03:14:39.161Z,88.70
2018-11-21T03:17:07.534Z,88.80
2018-11-21T03:19:35.993Z,88.80
2018-11-21T03:22:04.363Z,89.00
2018-11-21T03:24:32.735Z,89.10
2018-11-21T03:27:01.370Z,89.20
2018-11-21T03:29:29.748Z,89.30
2018-11-21T03:31:58.159Z,89.20
2018-11-21T03:34:26.604Z,89.50
2018-11-21T03:36:55.591Z,89.40
2018-11-21T03:39:25.103Z,89.40
2018-11-21T03:41:53.473Z,89.80
2018-11-21T03:44:21.834Z,89.80
2018-11-21T03:46:50.263Z,89.60
2018-11-21T03:49:18.718Z,89.80
2018-11-21T03:51:47.072Z,89.90
2018-11-21T03:54:15.440Z,90.20
2018-11-21T03:56:44.120Z,90.30
2018-11-21T03:59:12.522Z,90.60
2018-11-21T04:01:41.219Z,90.50
2018-11-21T04:04:09.904Z,90.60
2018-11-21T04:06:38.623Z,90.60
2018-11-21T04:09:11.771Z,90.50
2018-11-21T04:11:40.625Z,90.40
2018-11-21T04:14:09.455Z,90.50
2018-11-21T04:16:37.800Z,90.50
2018-11-21T04:19:06.201Z,90.50
2018-11-21T04:21:34.567Z,90.60
2018-11-21T04:24:02.940Z,90.40
2018-11-21T04:26:31.304Z,90.20
2018-11-21T04:28:59.972Z,89.80
2018-11-21T04:31:28.326Z,89.20
2018-11-21T04:33:56.671Z,89.00
2018-11-21T04:36:25.342Z,88.60
2018-11-21T04:38:53.716Z,88.70
2018-11-21T04:41:22.393Z,87.50
2018-11-21T04:43:50.748Z,86.90
2018-11-21T04:46:19.179Z,86.70
2018-11-21T04:48:48.313Z,86.40
2018-11-21T04:51:17.014Z,86.50
2018-11-21T04:53:45.359Z,86.30
2018-11-21T04:56:14.155Z,86.10
2018-11-21T04:58:42.581Z,86.00
2018-11-21T05:01:10.953Z,85.80
2018-11-21T05:03:39.613Z,85.60
2018-11-21T05:06:07.989Z,85.30
2018-11-21T05:08:36.350Z,85.30
2018-11-21T05:11:04.717Z,85.20
2018-11-21T05:13:33.468Z,85.10
2018-11-21T05:16:01.838Z,85.10
2018-11-21T05:18:30.393Z,85.40
2018-11-21T05:20:59.104Z,86.10
2018-11-21T05:23:27.902Z,86.60
2018-11-21T05:25:56.281Z,86.80
2018-11-21T05:28:25.195Z,87.10
2018-11-21T05:30:53.854Z,87.70
2018-11-21T05:33:22.841Z,88.00
2018-11-21T05:35:51.251Z,88.30
2018-11-21T05:38:19.621Z,88.30
2018-11-21T05:40:47.987Z,88.80
2018-11-21T05:43:16.794Z,88.90
2018-11-21T05:45:45.486Z,89.00
2018-11-21T05:48:13.869Z,89.10
2018-11-21T05:50:42.225Z,89.60
2018-11-21T05:53:10.945Z,89.90
2018-11-21T05:55:39.711Z,89.70
2018-11-21T05:58:08.427Z,90.00
2018-11-21T06:00:37.132Z,90.00
2018-11-21T06:03:05.659Z,90.00
2018-11-21T06:05:34.042Z,90.10
2018-11-21T06:08:02.423Z,90.10
2018-11-21T06:10:31.175Z,90.20
2018-11-21T06:12:59.550Z,90.10
2018-11-21T06:15:27.933Z,90.30
2018-11-21T06:17:56.321Z,90.20
2018-11-21T06:20:24.827Z,90.30
2018-11-21T06:22:53.278Z,90.20
2018-11-21T06:25:22.077Z,90.20
2018-11-21T06:27:50.594Z,90.30
2018-11-21T06:30:18.970Z,90.40
2018-11-21T06:32:47.355Z,90.70
2018-11-21T06:35:15.759Z,90.70
2018-11-21T06:37:44.499Z,90.70
2018-11-21T06:40:14.463Z,90.80
2018-11-21T06:43:02.104Z,90.80
2018-11-21T06:45:30.545Z,90.80
2018-11-21T06:47:58.920Z,90.80
2018-11-21T06:50:27.302Z,90.80
2018-11-21T06:55:25.455Z,90.80
2018-11-21T06:57:53.843Z,90.80
2018-11-21T07:00:22.570Z,90.90
2018-11-21T07:02:50.957Z,91.00
2018-11-21T07:05:19.406Z,90.90
2018-11-21T07:07:47.836Z,91.20
2018-11-21T07:10:16.993Z,90.80
2018-11-21T07:12:45.987Z,90.70
2018-11-21T07:15:14.378Z,90.50
2018-11-21T07:17:42.732Z,90.60
2018-11-21T07:20:12.919Z,90.70
2018-11-21T07:22:41.649Z,90.50
2018-11-21T07:25:16.070Z,90.50
2018-11-21T07:27:44.655Z,90.50
2018-11-21T07:30:14.454Z,90.50
2018-11-21T07:32:42.866Z,91.00
2018-11-21T07:35:17.539Z,90.60
2018-11-21T07:37:40.872Z,90.50
2018-11-21T07:40:11.031Z,90.80
2018-11-21T07:42:39.448Z,90.20
2018-11-21T07:45:12.909Z,90.10
2018-11-21T07:47:41.809Z,89.90
2018-11-21T07:50:13.035Z,89.50
2018-11-21T07:52:41.732Z,89.70
2018-11-21T07:55:11.426Z,89.80
2018-11-21T07:57:41.247Z,90.20
2018-11-21T08:01:13.468Z,89.80
2018-11-21T08:03:46.721Z,89.60
2018-11-21T08:06:39.983Z,89.50
2018-11-21T08:09:27.924Z,90.10
2018-11-21T08:12:15.452Z,89.40
2018-11-21T08:15:19.075Z,89.20
2018-11-21T08:18:10.065Z,89.10
2018-11-21T08:21:16.163Z,88.90
2018-11-21T08:23:57.171Z,89.10
2018-11-21T08:26:50.509Z,88.50
2018-11-21T08:29:18.982Z,88.30
2018-11-21T08:31:48.008Z,88.00
2018-11-21T08:34:16.424Z,87.50
2018-11-21T08:36:45.187Z,87.00
2018-11-21T08:39:13.566Z,86.60
2018-11-21T08:41:41.943Z,86.30
2018-11-21T08:44:10.287Z,86.10
2018-11-21T08:46:38.690Z,85.70
2018-11-21T08:49:07.081Z,85.80
2018-11-21T08:51:35.460Z,85.70
2018-11-21T08:54:03.816Z,85.10
2018-11-21T08:56:32.536Z,85.00
2018-11-21T08:59:00.558Z,84.80
2018-11-21T09:01:29.279Z,84.60
2018-11-21T09:03:57.675Z,84.60
2018-11-21T09:06:26.333Z,84.40
2018-11-21T09:08:54.774Z,83.90
2018-11-21T09:11:23.135Z,84.00
2018-11-21T09:13:53.250Z,83.70
2018-11-21T09:16:19.874Z,83.70
2018-11-21T09:18:48.276Z,82.80
2018-11-21T09:21:16.631Z,82.80
2018-11-21T09:23:45.062Z,82.40
2018-11-21T09:26:13.393Z,82.50
2018-11-21T09:28:42.120Z,81.70
2018-11-21T09:31:10.467Z,81.80
2018-11-21T09:33:38.826Z,81.90
2018-11-21T09:36:07.527Z,81.00
2018-11-21T09:38:36.606Z,80.90
2018-11-21T09:41:05.269Z,81.10
2018-11-21T09:43:33.606Z,80.90
2018-11-21T09:46:02.759Z,80.70
2018-11-21T09:48:31.120Z,80.00
2018-11-21T09:50:59.844Z,79.60
2018-11-21T09:53:28.542Z,79.30
2018-11-21T09:55:56.889Z,78.70
2018-11-21T09:58:25.257Z,78.30
2018-11-21T10:01:30.252Z,77.20
2018-11-21T10:04:01.010Z,76.70
2018-11-21T10:06:29.979Z,75.90
2018-11-21T10:09:00.203Z,74.20
2018-11-21T10:11:29.288Z,72.30
2018-11-21T10:13:57.694Z,71.50
2018-11-21T10:16:26.073Z,69.60
2018-11-21T10:18:55.851Z,68.80
2018-11-21T10:21:25.862Z,67.60
2018-11-21T10:23:54.609Z,63.30
2018-11-21T10:26:23.345Z,59.80
2018-11-21T10:28:52.446Z,56.10
2018-11-21T10:31:20.820Z,53.00
2018-11-21T10:33:49.241Z,51.10
2018-11-21T10:36:18.236Z,48.50
2018-11-21T10:38:47.010Z,45.60
2018-11-21T10:41:15.394Z,43.90
2018-11-21T10:43:44.236Z,42.90
2018-11-21T10:46:13.456Z,42.50
2018-11-21T10:48:42.417Z,41.00
2018-11-21T10:51:10.778Z,39.10
2018-11-21T10:53:40.604Z,36.80
2018-11-21T10:56:08.995Z,34.50
2018-11-21T10:58:37.361Z,33.30
2018-11-21T11:01:27.876Z,32.60
2018-11-21T11:04:09.421Z,32.30
2018-11-21T11:07:09.326Z,32.00
2018-11-21T11:09:56.893Z,31.60
2018-11-21T11:12:47.460Z,31.80
2018-11-21T11:15:28.793Z,30.50
2018-11-21T11:18:09.229Z,30.10
2018-11-21T11:21:11.849Z,29.70
2018-11-21T11:23:53.188Z,29.00
2018-11-21T11:26:39.320Z,28.80
2018-11-21T11:29:30.130Z,28.40
2018-11-21T11:32:16.300Z,28.50
2018-11-21T11:35:03.850Z,28.40
2018-11-21T11:37:50.028Z,28.10
2018-11-21T11:40:46.307Z,27.40
2018-11-21T11:43:48.907Z,27.30
2018-11-21T11:46:38.954Z,27.20
2018-11-21T11:49:25.270Z,26.20
2018-11-21T11:52:11.786Z,26.30
2018-11-21T11:55:11.270Z,25.90
2018-11-21T11:58:07.927Z,26.80
2018-11-21T12:01:11.155Z,27.00
2018-11-21T12:03:58.763Z,27.50
2018-11-21T12:06:46.292Z,27.50
2018-11-21T12:09:42.620Z,27.60
2018-11-21T12:12:19.261Z,26.40
2018-11-21T12:15:21.947Z,26.30
2018-11-21T12:18:15.769Z,26.50
2018-11-21T12:21:01.912Z,26.80
2018-11-21T12:23:55.378Z,27.20
2018-11-21T12:26:36.437Z,26.70
2018-11-21T12:29:33.128Z,26.70
2018-11-21T12:32:20.644Z,27.40
2018-11-21T12:35:08.604Z,28.10
2018-11-21T12:38:02.065Z,28.80
2018-11-21T12:40:48.112Z,29.30
2018-11-21T12:43:41.607Z,29.20
2018-11-21T12:46:40.854Z,30.00
2018-11-21T12:49:37.353Z,29.90
